West Milton, Ohio
Current Conditions -  °F | °C
As of 10:56 PM on Sunday 21 Dec 2014 (Local Time) from KDAY Reporting Station
Haze Haze  
Wind Chill: 20°   Ceiling: Unl
Heat Index: 27°   Visibility: 6mi
Dew Point: 24°   Wind: 6mph
Humidity: 89%   Direction: 100°E
Pressure: 30.14"   Gusts: NA
Location:  39.96°N, 84.33°W
Report Text: KDAY 220356Z 10005KT 6SM BR SCT250 M03/M04 A3014 RMK AO2 SLP215 T10281044
Loading
Personal Weather Stations






























Interactive Weather Map New forecast layout! Learn more

10-Day Weather Forecast

Advertisements
Track Severe Weather on mobile